Pagina principale
METAR-TAF:

METAR-TAF

Aeroporti :

Alpnach, Svizzera

latitudine: 46-56-19N, longitudine: 8-17-03E, altezza: 440 m

Osservazione

Il bollettino è stato emesso 48 minuti fa, alle 12:50 UTC
Vento calmo
Temperature 12°C
Umidità 71%
Pressione 1019 hPa
Visibilità 10 km o più
Nuvoloso ad un'altezza di 4500 ft
Cielo coperto ad un'altezza di 6000 ft

METAR: LSMA 191250Z 00000KT 9999 BKN045 OVC060 12/07 Q1019 RMK BLU

Ora: 15:38 (13:38 UTC)


TAF: mancante

Osservazioni e previsioni meteorologiche di più di 4000 aeroporti (messaggi METAR e TAF).

Le stazioni disponibili sono rappresentate dai dischi gialli e rossi sulla carta.

Puntare il mouse per vedere il nome della stazione.

Clicca sopra per visualizzare le osservazioni e previsioni meteorologiche.

Per cambiare la mappa : fare clic sui pulsanti verdi con una croce nera per ingrandire, il pulsante verde con un trattino per diminuire, o sulla freccia verde per le mappe adiacenti.


METAR-TAF: